sensor_id;sensor_type;location;lat;lon;timestamp;P1;durP1;ratioP1;P2;durP2;ratioP2
53261;SDS011;39658;51.090;-1.786;2022-08-16T00:00:11;21.98;;;14.07;;
53261;SDS011;39658;51.090;-1.786;2022-08-16T00:02:39;21.92;;;15.27;;
53261;SDS011;39658;51.090;-1.786;2022-08-16T00:05:07;21.98;;;15.05;;
53261;SDS011;39658;51.090;-1.786;2022-08-16T00:07:35;25.85;;;18.05;;
53261;SDS011;39658;51.090;-1.786;2022-08-16T00:10:03;25.27;;;18.77;;
53261;SDS011;39658;51.090;-1.786;2022-08-16T00:12:33;26.73;;;20.05;;
53261;SDS011;39658;51.090;-1.786;2022-08-16T00:15:03;25.25;;;19.40;;
53261;SDS011;39658;51.090;-1.786;2022-08-16T00:17:32;29.33;;;20.23;;
53261;SDS011;39658;51.090;-1.786;2022-08-16T00:19:59;28.17;;;21.13;;
53261;SDS011;39658;51.090;-1.786;2022-08-16T00:22:26;28.60;;;21.27;;
53261;SDS011;39658;51.090;-1.786;2022-08-16T00:24:53;25.23;;;20.55;;
53261;SDS011;39658;51.090;-1.786;2022-08-16T00:27:19;33.15;;;21.83;;
53261;SDS011;39658;51.090;-1.786;2022-08-16T00:29:48;31.08;;;21.40;;
53261;SDS011;39658;51.090;-1.786;2022-08-16T00:32:16;31.90;;;21.42;;
53261;SDS011;39658;51.090;-1.786;2022-08-16T00:34:43;31.35;;;21.83;;
53261;SDS011;39658;51.090;-1.786;2022-08-16T00:37:12;33.97;;;22.17;;
53261;SDS011;39658;51.090;-1.786;2022-08-16T00:39:39;31.48;;;24.17;;
53261;SDS011;39658;51.090;-1.786;2022-08-16T00:42:06;30.17;;;23.98;;
53261;SDS011;39658;51.090;-1.786;2022-08-16T00:44:32;33.05;;;25.48;;
53261;SDS011;39658;51.090;-1.786;2022-08-16T00:47:03;31.30;;;25.70;;
53261;SDS011;39658;51.090;-1.786;2022-08-16T00:49:33;34.30;;;26.45;;
53261;SDS011;39658;51.090;-1.786;2022-08-16T00:52:01;34.53;;;24.45;;
53261;SDS011;39658;51.090;-1.786;2022-08-16T00:54:29;27.90;;;23.63;;
53261;SDS011;39658;51.090;-1.786;2022-08-16T00:56:57;31.42;;;23.17;;
53261;SDS011;39658;51.090;-1.786;2022-08-16T00:59:27;32.13;;;23.98;;
53261;SDS011;39658;51.090;-1.786;2022-08-16T01:01:56;31.45;;;23.58;;
53261;SDS011;39658;51.090;-1.786;2022-08-16T01:04:26;35.92;;;23.08;;
53261;SDS011;39658;51.090;-1.786;2022-08-16T01:06:53;31.20;;;23.67;;
53261;SDS011;39658;51.090;-1.786;2022-08-16T01:09:20;32.17;;;23.38;;
53261;SDS011;39658;51.090;-1.786;2022-08-16T01:11:48;31.73;;;23.63;;
53261;SDS011;39658;51.090;-1.786;2022-08-16T01:14:16;28.00;;;24.45;;
53261;SDS011;39658;51.090;-1.786;2022-08-16T01:16:45;34.75;;;24.13;;
53261;SDS011;39658;51.090;-1.786;2022-08-16T01:19:16;28.70;;;24.50;;
53261;SDS011;39658;51.090;-1.786;2022-08-16T01:21:51;34.38;;;25.38;;
53261;SDS011;39658;51.090;-1.786;2022-08-16T01:24:26;33.05;;;23.58;;
53261;SDS011;39658;51.090;-1.786;2022-08-16T01:26:55;34.33;;;24.38;;
53261;SDS011;39658;51.090;-1.786;2022-08-16T01:29:27;35.45;;;24.42;;
53261;SDS011;39658;51.090;-1.786;2022-08-16T01:31:59;31.85;;;23.58;;
53261;SDS011;39658;51.090;-1.786;2022-08-16T01:34:26;30.75;;;23.75;;
53261;SDS011;39658;51.090;-1.786;2022-08-16T01:36:57;34.22;;;25.15;;
53261;SDS011;39658;51.090;-1.786;2022-08-16T01:39:27;31.30;;;24.33;;
53261;SDS011;39658;51.090;-1.786;2022-08-16T01:41:54;34.55;;;25.23;;
53261;SDS011;39658;51.090;-1.786;2022-08-16T01:44:21;40.30;;;25.75;;
53261;SDS011;39658;51.090;-1.786;2022-08-16T01:46:48;34.00;;;25.30;;
53261;SDS011;39658;51.090;-1.786;2022-08-16T01:49:18;34.85;;;25.10;;
53261;SDS011;39658;51.090;-1.786;2022-08-16T01:51:51;37.58;;;25.23;;
53261;SDS011;39658;51.090;-1.786;2022-08-16T01:54:20;34.20;;;24.88;;
53261;SDS011;39658;51.090;-1.786;2022-08-16T01:56:49;35.20;;;23.15;;
53261;SDS011;39658;51.090;-1.786;2022-08-16T01:59:16;32.20;;;24.42;;
53261;SDS011;39658;51.090;-1.786;2022-08-16T02:01:43;31.88;;;23.83;;
53261;SDS011;39658;51.090;-1.786;2022-08-16T02:04:11;39.05;;;24.60;;
53261;SDS011;39658;51.090;-1.786;2022-08-16T02:06:38;36.25;;;23.52;;
53261;SDS011;39658;51.090;-1.786;2022-08-16T02:09:06;34.80;;;22.30;;
53261;SDS011;39658;51.090;-1.786;2022-08-16T02:11:34;35.05;;;21.83;;
53261;SDS011;39658;51.090;-1.786;2022-08-16T02:14:04;31.90;;;20.77;;
53261;SDS011;39658;51.090;-1.786;2022-08-16T02:16:31;28.85;;;19.67;;
53261;SDS011;39658;51.090;-1.786;2022-08-16T02:18:58;32.92;;;19.27;;
53261;SDS011;39658;51.090;-1.786;2022-08-16T02:21:25;32.78;;;19.83;;
53261;SDS011;39658;51.090;-1.786;2022-08-16T02:23:52;28.13;;;18.90;;
53261;SDS011;39658;51.090;-1.786;2022-08-16T02:26:19;31.70;;;18.75;;
53261;SDS011;39658;51.090;-1.786;2022-08-16T02:28:46;29.67;;;18.65;;
53261;SDS011;39658;51.090;-1.786;2022-08-16T02:31:14;35.95;;;19.45;;
53261;SDS011;39658;51.090;-1.786;2022-08-16T02:33:41;30.67;;;19.05;;
53261;SDS011;39658;51.090;-1.786;2022-08-16T02:36:09;29.58;;;18.52;;
53261;SDS011;39658;51.090;-1.786;2022-08-16T02:38:37;31.27;;;18.50;;
53261;SDS011;39658;51.090;-1.786;2022-08-16T02:41:05;26.30;;;17.70;;
53261;SDS011;39658;51.090;-1.786;2022-08-16T02:43:34;30.13;;;18.77;;
53261;SDS011;39658;51.090;-1.786;2022-08-16T02:46:02;29.73;;;18.90;;
53261;SDS011;39658;51.090;-1.786;2022-08-16T02:48:31;32.25;;;19.40;;
53261;SDS011;39658;51.090;-1.786;2022-08-16T02:50:59;30.08;;;19.33;;
53261;SDS011;39658;51.090;-1.786;2022-08-16T02:53:28;33.78;;;20.52;;
53261;SDS011;39658;51.090;-1.786;2022-08-16T02:55:55;31.98;;;19.80;;
53261;SDS011;39658;51.090;-1.786;2022-08-16T02:58:23;30.33;;;20.05;;
53261;SDS011;39658;51.090;-1.786;2022-08-16T03:00:50;31.75;;;21.15;;
53261;SDS011;39658;51.090;-1.786;2022-08-16T03:03:18;38.88;;;21.67;;
53261;SDS011;39658;51.090;-1.786;2022-08-16T03:05:46;34.60;;;21.48;;
53261;SDS011;39658;51.090;-1.786;2022-08-16T03:08:15;33.08;;;21.38;;
53261;SDS011;39658;51.090;-1.786;2022-08-16T03:10:42;30.73;;;21.08;;
53261;SDS011;39658;51.090;-1.786;2022-08-16T03:13:10;39.90;;;23.05;;
53261;SDS011;39658;51.090;-1.786;2022-08-16T03:15:36;39.22;;;22.95;;
53261;SDS011;39658;51.090;-1.786;2022-08-16T03:18:03;34.25;;;23.27;;
53261;SDS011;39658;51.090;-1.786;2022-08-16T03:20:30;34.92;;;22.10;;
53261;SDS011;39658;51.090;-1.786;2022-08-16T03:22:58;28.40;;;21.55;;
53261;SDS011;39658;51.090;-1.786;2022-08-16T03:25:26;31.20;;;21.60;;
53261;SDS011;39658;51.090;-1.786;2022-08-16T03:27:52;32.30;;;20.70;;
53261;SDS011;39658;51.090;-1.786;2022-08-16T03:30:20;32.55;;;21.38;;
53261;SDS011;39658;51.090;-1.786;2022-08-16T03:32:49;34.75;;;21.10;;
53261;SDS011;39658;51.090;-1.786;2022-08-16T03:35:17;30.60;;;21.25;;
53261;SDS011;39658;51.090;-1.786;2022-08-16T03:37:46;31.25;;;21.45;;
53261;SDS011;39658;51.090;-1.786;2022-08-16T03:40:15;27.33;;;21.52;;
53261;SDS011;39658;51.090;-1.786;2022-08-16T03:42:41;41.28;;;23.30;;
53261;SDS011;39658;51.090;-1.786;2022-08-16T03:45:08;33.57;;;23.23;;
53261;SDS011;39658;51.090;-1.786;2022-08-16T03:47:35;30.70;;;24.03;;
53261;SDS011;39658;51.090;-1.786;2022-08-16T03:50:02;34.40;;;24.60;;
53261;SDS011;39658;51.090;-1.786;2022-08-16T03:52:31;36.70;;;25.63;;
53261;SDS011;39658;51.090;-1.786;2022-08-16T03:54:59;41.58;;;25.80;;
53261;SDS011;39658;51.090;-1.786;2022-08-16T03:57:27;30.40;;;24.95;;
53261;SDS011;39658;51.090;-1.786;2022-08-16T03:59:55;41.33;;;24.83;;
53261;SDS011;39658;51.090;-1.786;2022-08-16T04:02:22;34.10;;;24.70;;
53261;SDS011;39658;51.090;-1.786;2022-08-16T04:04:49;33.30;;;24.63;;
53261;SDS011;39658;51.090;-1.786;2022-08-16T04:07:18;33.55;;;24.73;;
53261;SDS011;39658;51.090;-1.786;2022-08-16T04:09:45;29.02;;;24.92;;
53261;SDS011;39658;51.090;-1.786;2022-08-16T04:12:11;34.22;;;25.60;;
53261;SDS011;39658;51.090;-1.786;2022-08-16T04:14:40;33.05;;;24.10;;
53261;SDS011;39658;51.090;-1.786;2022-08-16T04:17:06;33.03;;;23.83;;
53261;SDS011;39658;51.090;-1.786;2022-08-16T04:19:33;32.22;;;23.60;;
53261;SDS011;39658;51.090;-1.786;2022-08-16T04:22:00;29.42;;;22.92;;
53261;SDS011;39658;51.090;-1.786;2022-08-16T04:24:27;29.98;;;24.05;;
53261;SDS011;39658;51.090;-1.786;2022-08-16T04:26:54;33.88;;;24.45;;
53261;SDS011;39658;51.090;-1.786;2022-08-16T04:29:20;32.45;;;23.83;;
53261;SDS011;39658;51.090;-1.786;2022-08-16T04:31:49;29.98;;;23.77;;
53261;SDS011;39658;51.090;-1.786;2022-08-16T04:34:16;29.45;;;22.90;;
53261;SDS011;39658;51.090;-1.786;2022-08-16T04:36:43;36.45;;;23.45;;
53261;SDS011;39658;51.090;-1.786;2022-08-16T04:39:10;30.40;;;22.90;;
53261;SDS011;39658;51.090;-1.786;2022-08-16T04:41:37;30.08;;;21.40;;
53261;SDS011;39658;51.090;-1.786;2022-08-16T04:44:03;33.08;;;23.40;;
53261;SDS011;39658;51.090;-1.786;2022-08-16T04:46:30;37.97;;;24.23;;
53261;SDS011;39658;51.090;-1.786;2022-08-16T04:48:59;31.83;;;24.70;;
53261;SDS011;39658;51.090;-1.786;2022-08-16T04:51:25;37.05;;;26.27;;
53261;SDS011;39658;51.090;-1.786;2022-08-16T04:53:52;33.85;;;26.80;;
53261;SDS011;39658;51.090;-1.786;2022-08-16T04:56:19;35.80;;;27.02;;
53261;SDS011;39658;51.090;-1.786;2022-08-16T04:58:45;45.78;;;29.08;;
53261;SDS011;39658;51.090;-1.786;2022-08-16T05:01:12;40.85;;;28.52;;
53261;SDS011;39658;51.090;-1.786;2022-08-16T05:03:39;43.90;;;29.52;;
53261;SDS011;39658;51.090;-1.786;2022-08-16T05:06:07;36.30;;;28.42;;
53261;SDS011;39658;51.090;-1.786;2022-08-16T05:08:34;38.25;;;28.13;;
53261;SDS011;39658;51.090;-1.786;2022-08-16T05:11:02;38.22;;;28.17;;
53261;SDS011;39658;51.090;-1.786;2022-08-16T05:13:31;41.17;;;28.52;;
53261;SDS011;39658;51.090;-1.786;2022-08-16T05:15:59;44.75;;;28.48;;
53261;SDS011;39658;51.090;-1.786;2022-08-16T05:18:26;34.50;;;26.13;;
53261;SDS011;39658;51.090;-1.786;2022-08-16T05:20:53;41.15;;;28.08;;
53261;SDS011;39658;51.090;-1.786;2022-08-16T05:23:21;36.95;;;25.70;;
53261;SDS011;39658;51.090;-1.786;2022-08-16T05:25:48;39.15;;;28.08;;
53261;SDS011;39658;51.090;-1.786;2022-08-16T05:28:14;36.90;;;27.05;;
53261;SDS011;39658;51.090;-1.786;2022-08-16T05:30:41;33.25;;;26.33;;
53261;SDS011;39658;51.090;-1.786;2022-08-16T05:33:08;32.92;;;24.67;;
53261;SDS011;39658;51.090;-1.786;2022-08-16T05:35:36;38.53;;;25.63;;
53261;SDS011;39658;51.090;-1.786;2022-08-16T05:38:02;33.63;;;25.48;;
53261;SDS011;39658;51.090;-1.786;2022-08-16T05:40:31;35.30;;;24.55;;
53261;SDS011;39658;51.090;-1.786;2022-08-16T05:42:57;33.17;;;24.75;;
53261;SDS011;39658;51.090;-1.786;2022-08-16T05:45:24;30.17;;;24.02;;
53261;SDS011;39658;51.090;-1.786;2022-08-16T05:47:51;34.22;;;24.13;;
53261;SDS011;39658;51.090;-1.786;2022-08-16T05:50:18;37.60;;;24.67;;
53261;SDS011;39658;51.090;-1.786;2022-08-16T05:52:44;40.92;;;26.15;;
53261;SDS011;39658;51.090;-1.786;2022-08-16T05:55:11;38.13;;;26.30;;
53261;SDS011;39658;51.090;-1.786;2022-08-16T05:57:39;35.45;;;27.40;;
53261;SDS011;39658;51.090;-1.786;2022-08-16T06:00:07;39.97;;;25.40;;
53261;SDS011;39658;51.090;-1.786;2022-08-16T06:02:36;38.63;;;24.92;;
53261;SDS011;39658;51.090;-1.786;2022-08-16T06:05:03;39.53;;;24.48;;
53261;SDS011;39658;51.090;-1.786;2022-08-16T06:07:30;49.35;;;25.27;;
53261;SDS011;39658;51.090;-1.786;2022-08-16T06:09:57;43.10;;;24.45;;
53261;SDS011;39658;51.090;-1.786;2022-08-16T06:12:24;42.22;;;25.20;;
53261;SDS011;39658;51.090;-1.786;2022-08-16T06:14:53;46.28;;;26.30;;
53261;SDS011;39658;51.090;-1.786;2022-08-16T06:17:25;49.22;;;26.52;;
53261;SDS011;39658;51.090;-1.786;2022-08-16T06:19:53;51.53;;;27.05;;
53261;SDS011;39658;51.090;-1.786;2022-08-16T06:22:20;49.60;;;28.20;;
53261;SDS011;39658;51.090;-1.786;2022-08-16T06:24:47;49.42;;;28.10;;
53261;SDS011;39658;51.090;-1.786;2022-08-16T06:27:15;48.05;;;29.45;;
53261;SDS011;39658;51.090;-1.786;2022-08-16T06:29:42;57.85;;;29.90;;
53261;SDS011;39658;51.090;-1.786;2022-08-16T06:32:10;56.97;;;29.35;;
53261;SDS011;39658;51.090;-1.786;2022-08-16T06:34:37;56.58;;;29.83;;
53261;SDS011;39658;51.090;-1.786;2022-08-16T06:37:04;67.65;;;31.02;;
53261;SDS011;39658;51.090;-1.786;2022-08-16T06:39:31;64.65;;;31.35;;
53261;SDS011;39658;51.090;-1.786;2022-08-16T06:41:59;71.40;;;31.80;;
53261;SDS011;39658;51.090;-1.786;2022-08-16T06:44:27;76.90;;;31.30;;
53261;SDS011;39658;51.090;-1.786;2022-08-16T06:46:53;82.40;;;30.15;;
53261;SDS011;39658;51.090;-1.786;2022-08-16T06:49:21;84.50;;;30.02;;
53261;SDS011;39658;51.090;-1.786;2022-08-16T06:51:48;52.15;;;26.23;;
53261;SDS011;39658;51.090;-1.786;2022-08-16T06:54:18;63.03;;;26.95;;
53261;SDS011;39658;51.090;-1.786;2022-08-16T06:56:45;55.00;;;24.15;;
53261;SDS011;39658;51.090;-1.786;2022-08-16T06:59:12;45.60;;;22.50;;
53261;SDS011;39658;51.090;-1.786;2022-08-16T07:01:38;48.27;;;21.67;;
53261;SDS011;39658;51.090;-1.786;2022-08-16T07:04:05;45.78;;;21.73;;
53261;SDS011;39658;51.090;-1.786;2022-08-16T07:06:33;42.75;;;22.02;;
53261;SDS011;39658;51.090;-1.786;2022-08-16T07:09:00;42.63;;;23.80;;
53261;SDS011;39658;51.090;-1.786;2022-08-16T07:11:27;58.67;;;26.88;;
53261;SDS011;39658;51.090;-1.786;2022-08-16T07:13:54;48.17;;;25.63;;
53261;SDS011;39658;51.090;-1.786;2022-08-16T07:16:21;44.17;;;25.88;;
53261;SDS011;39658;51.090;-1.786;2022-08-16T07:18:47;35.10;;;24.27;;
53261;SDS011;39658;51.090;-1.786;2022-08-16T07:21:14;42.72;;;25.50;;
53261;SDS011;39658;51.090;-1.786;2022-08-16T07:23:43;34.53;;;23.73;;
53261;SDS011;39658;51.090;-1.786;2022-08-16T07:26:18;29.33;;;20.30;;
53261;SDS011;39658;51.090;-1.786;2022-08-16T07:28:46;34.13;;;21.73;;
53261;SDS011;39658;51.090;-1.786;2022-08-16T07:31:13;36.75;;;22.55;;
53261;SDS011;39658;51.090;-1.786;2022-08-16T07:33:40;35.67;;;22.25;;
53261;SDS011;39658;51.090;-1.786;2022-08-16T07:36:09;36.65;;;22.88;;
53261;SDS011;39658;51.090;-1.786;2022-08-16T07:38:37;34.17;;;22.77;;
53261;SDS011;39658;51.090;-1.786;2022-08-16T07:41:05;34.40;;;22.52;;
53261;SDS011;39658;51.090;-1.786;2022-08-16T07:43:32;38.47;;;21.95;;
53261;SDS011;39658;51.090;-1.786;2022-08-16T07:46:00;33.80;;;21.58;;
53261;SDS011;39658;51.090;-1.786;2022-08-16T07:48:27;36.58;;;21.38;;
53261;SDS011;39658;51.090;-1.786;2022-08-16T07:50:54;34.97;;;21.05;;
53261;SDS011;39658;51.090;-1.786;2022-08-16T07:53:20;34.53;;;18.45;;
53261;SDS011;39658;51.090;-1.786;2022-08-16T07:55:47;29.67;;;16.00;;
53261;SDS011;39658;51.090;-1.786;2022-08-16T07:58:15;25.25;;;15.65;;
53261;SDS011;39658;51.090;-1.786;2022-08-16T08:00:42;23.60;;;14.60;;
53261;SDS011;39658;51.090;-1.786;2022-08-16T08:03:09;24.42;;;14.25;;
53261;SDS011;39658;51.090;-1.786;2022-08-16T08:05:36;19.25;;;13.05;;
53261;SDS011;39658;51.090;-1.786;2022-08-16T08:08:04;25.20;;;13.13;;
53261;SDS011;39658;51.090;-1.786;2022-08-16T08:10:31;20.45;;;13.20;;
53261;SDS011;39658;51.090;-1.786;2022-08-16T08:12:58;26.65;;;11.98;;
53261;SDS011;39658;51.090;-1.786;2022-08-16T08:15:26;21.77;;;11.80;;
53261;SDS011;39658;51.090;-1.786;2022-08-16T08:17:53;20.63;;;10.93;;
53261;SDS011;39658;51.090;-1.786;2022-08-16T08:20:21;25.17;;;12.65;;
53261;SDS011;39658;51.090;-1.786;2022-08-16T08:22:50;20.35;;;11.55;;
53261;SDS011;39658;51.090;-1.786;2022-08-16T08:25:17;24.15;;;11.90;;
53261;SDS011;39658;51.090;-1.786;2022-08-16T08:27:45;24.55;;;11.20;;
53261;SDS011;39658;51.090;-1.786;2022-08-16T08:30:13;22.00;;;11.70;;
53261;SDS011;39658;51.090;-1.786;2022-08-16T08:32:41;16.75;;;10.38;;
53261;SDS011;39658;51.090;-1.786;2022-08-16T08:35:08;17.27;;;10.50;;
53261;SDS011;39658;51.090;-1.786;2022-08-16T08:37:36;18.90;;;10.27;;
53261;SDS011;39658;51.090;-1.786;2022-08-16T08:40:03;17.73;;;9.50;;
53261;SDS011;39658;51.090;-1.786;2022-08-16T08:42:31;19.45;;;9.70;;
53261;SDS011;39658;51.090;-1.786;2022-08-16T08:44:58;17.52;;;9.32;;
53261;SDS011;39658;51.090;-1.786;2022-08-16T08:47:28;17.25;;;9.60;;
53261;SDS011;39658;51.090;-1.786;2022-08-16T08:49:56;20.52;;;9.23;;
53261;SDS011;39658;51.090;-1.786;2022-08-16T08:52:24;20.38;;;10.15;;
53261;SDS011;39658;51.090;-1.786;2022-08-16T08:54:52;17.48;;;8.90;;
53261;SDS011;39658;51.090;-1.786;2022-08-16T08:57:19;18.30;;;9.68;;
53261;SDS011;39658;51.090;-1.786;2022-08-16T08:59:45;19.38;;;8.60;;
53261;SDS011;39658;51.090;-1.786;2022-08-16T09:02:12;16.75;;;8.10;;
53261;SDS011;39658;51.090;-1.786;2022-08-16T09:04:40;16.15;;;7.63;;
53261;SDS011;39658;51.090;-1.786;2022-08-16T09:07:09;17.45;;;8.60;;
53261;SDS011;39658;51.090;-1.786;2022-08-16T09:09:36;14.10;;;7.68;;
53261;SDS011;39658;51.090;-1.786;2022-08-16T09:12:03;17.05;;;6.50;;
53261;SDS011;39658;51.090;-1.786;2022-08-16T09:14:32;16.92;;;6.65;;
53261;SDS011;39658;51.090;-1.786;2022-08-16T09:16:59;12.90;;;6.40;;
53261;SDS011;39658;51.090;-1.786;2022-08-16T09:19:26;13.53;;;6.23;;
53261;SDS011;39658;51.090;-1.786;2022-08-16T09:21:53;12.93;;;5.88;;
53261;SDS011;39658;51.090;-1.786;2022-08-16T09:24:21;11.98;;;5.43;;
53261;SDS011;39658;51.090;-1.786;2022-08-16T09:26:48;14.07;;;5.07;;
53261;SDS011;39658;51.090;-1.786;2022-08-16T09:29:15;10.45;;;5.30;;
53261;SDS011;39658;51.090;-1.786;2022-08-16T09:31:41;14.65;;;5.90;;
53261;SDS011;39658;51.090;-1.786;2022-08-16T09:34:08;13.18;;;5.63;;
53261;SDS011;39658;51.090;-1.786;2022-08-16T09:36:35;14.40;;;5.72;;
53261;SDS011;39658;51.090;-1.786;2022-08-16T09:39:03;12.35;;;4.80;;
53261;SDS011;39658;51.090;-1.786;2022-08-16T09:41:31;10.57;;;5.40;;
53261;SDS011;39658;51.090;-1.786;2022-08-16T09:43:58;11.02;;;5.13;;
53261;SDS011;39658;51.090;-1.786;2022-08-16T09:46:27;15.20;;;5.53;;
53261;SDS011;39658;51.090;-1.786;2022-08-16T09:48:54;15.55;;;5.75;;
53261;SDS011;39658;51.090;-1.786;2022-08-16T09:51:22;11.45;;;5.50;;
53261;SDS011;39658;51.090;-1.786;2022-08-16T09:53:50;12.35;;;5.47;;
53261;SDS011;39658;51.090;-1.786;2022-08-16T09:56:19;10.85;;;5.57;;
53261;SDS011;39658;51.090;-1.786;2022-08-16T09:58:52;12.07;;;6.28;;
53261;SDS011;39658;51.090;-1.786;2022-08-16T10:01:19;17.08;;;6.43;;
53261;SDS011;39658;51.090;-1.786;2022-08-16T10:03:46;12.82;;;6.50;;
53261;SDS011;39658;51.090;-1.786;2022-08-16T10:06:12;16.10;;;6.70;;
53261;SDS011;39658;51.090;-1.786;2022-08-16T10:08:39;10.82;;;6.95;;
53261;SDS011;39658;51.090;-1.786;2022-08-16T10:11:06;15.07;;;7.72;;
53261;SDS011;39658;51.090;-1.786;2022-08-16T10:14:06;12.73;;;6.40;;
53261;SDS011;39658;51.090;-1.786;2022-08-16T10:16:33;11.95;;;7.05;;
53261;SDS011;39658;51.090;-1.786;2022-08-16T10:19:00;13.50;;;6.93;;
53261;SDS011;39658;51.090;-1.786;2022-08-16T10:21:27;11.55;;;6.55;;
53261;SDS011;39658;51.090;-1.786;2022-08-16T10:23:54;14.52;;;7.35;;
53261;SDS011;39658;51.090;-1.786;2022-08-16T10:26:21;16.50;;;7.47;;
53261;SDS011;39658;51.090;-1.786;2022-08-16T10:28:49;16.45;;;7.95;;
53261;SDS011;39658;51.090;-1.786;2022-08-16T10:31:18;15.10;;;8.70;;
53261;SDS011;39658;51.090;-1.786;2022-08-16T10:33:44;16.65;;;9.13;;
53261;SDS011;39658;51.090;-1.786;2022-08-16T10:36:11;13.43;;;7.53;;
53261;SDS011;39658;51.090;-1.786;2022-08-16T10:38:39;15.97;;;7.50;;
53261;SDS011;39658;51.090;-1.786;2022-08-16T10:41:07;17.65;;;8.90;;
53261;SDS011;39658;51.090;-1.786;2022-08-16T10:43:35;21.27;;;9.03;;
53261;SDS011;39658;51.090;-1.786;2022-08-16T10:46:03;14.68;;;8.18;;
53261;SDS011;39658;51.090;-1.786;2022-08-16T10:48:32;16.33;;;8.50;;
53261;SDS011;39658;51.090;-1.786;2022-08-16T10:50:59;21.80;;;9.38;;
53261;SDS011;39658;51.090;-1.786;2022-08-16T10:53:26;20.30;;;9.07;;
53261;SDS011;39658;51.090;-1.786;2022-08-16T10:55:54;15.88;;;7.88;;
53261;SDS011;39658;51.090;-1.786;2022-08-16T10:58:21;15.77;;;7.88;;
53261;SDS011;39658;51.090;-1.786;2022-08-16T11:00:47;14.40;;;7.35;;
53261;SDS011;39658;51.090;-1.786;2022-08-16T11:03:14;11.45;;;6.35;;
53261;SDS011;39658;51.090;-1.786;2022-08-16T11:05:42;17.13;;;6.95;;
53261;SDS011;39658;51.090;-1.786;2022-08-16T11:08:09;13.70;;;7.40;;
53261;SDS011;39658;51.090;-1.786;2022-08-16T11:10:38;14.95;;;8.02;;
53261;SDS011;39658;51.090;-1.786;2022-08-16T11:13:07;14.07;;;6.70;;
53261;SDS011;39658;51.090;-1.786;2022-08-16T11:15:35;13.30;;;6.72;;
53261;SDS011;39658;51.090;-1.786;2022-08-16T11:18:03;14.85;;;7.38;;
53261;SDS011;39658;51.090;-1.786;2022-08-16T11:20:31;19.80;;;8.38;;
53261;SDS011;39658;51.090;-1.786;2022-08-16T11:22:59;13.30;;;6.70;;
53261;SDS011;39658;51.090;-1.786;2022-08-16T11:25:27;14.80;;;8.77;;
53261;SDS011;39658;51.090;-1.786;2022-08-16T11:27:56;16.13;;;9.32;;
53261;SDS011;39658;51.090;-1.786;2022-08-16T11:30:25;17.90;;;10.40;;
53261;SDS011;39658;51.090;-1.786;2022-08-16T11:32:53;15.90;;;9.45;;
53261;SDS011;39658;51.090;-1.786;2022-08-16T11:35:21;12.35;;;8.40;;
53261;SDS011;39658;51.090;-1.786;2022-08-16T11:37:50;20.27;;;11.82;;
53261;SDS011;39658;51.090;-1.786;2022-08-16T11:40:22;23.45;;;11.27;;
53261;SDS011;39658;51.090;-1.786;2022-08-16T11:42:50;20.92;;;12.07;;
53261;SDS011;39658;51.090;-1.786;2022-08-16T11:45:17;17.38;;;11.35;;
53261;SDS011;39658;51.090;-1.786;2022-08-16T11:47:44;16.42;;;12.27;;
53261;SDS011;39658;51.090;-1.786;2022-08-16T11:50:12;14.85;;;10.95;;
53261;SDS011;39658;51.090;-1.786;2022-08-16T11:52:38;13.07;;;7.57;;
53261;SDS011;39658;51.090;-1.786;2022-08-16T11:55:06;11.67;;;7.20;;
53261;SDS011;39658;51.090;-1.786;2022-08-16T11:57:36;9.73;;;6.07;;
53261;SDS011;39658;51.090;-1.786;2022-08-16T12:00:07;10.68;;;6.65;;
53261;SDS011;39658;51.090;-1.786;2022-08-16T12:02:37;11.70;;;7.60;;
53261;SDS011;39658;51.090;-1.786;2022-08-16T12:05:04;11.48;;;8.10;;
53261;SDS011;39658;51.090;-1.786;2022-08-16T12:07:32;13.05;;;8.63;;
53261;SDS011;39658;51.090;-1.786;2022-08-16T12:10:00;14.45;;;9.07;;
53261;SDS011;39658;51.090;-1.786;2022-08-16T12:12:27;14.80;;;9.30;;
53261;SDS011;39658;51.090;-1.786;2022-08-16T12:14:55;13.95;;;9.40;;
53261;SDS011;39658;51.090;-1.786;2022-08-16T12:17:21;11.63;;;8.50;;
53261;SDS011;39658;51.090;-1.786;2022-08-16T12:19:48;12.48;;;8.52;;
53261;SDS011;39658;51.090;-1.786;2022-08-16T12:22:15;12.52;;;9.32;;
53261;SDS011;39658;51.090;-1.786;2022-08-16T12:24:42;13.07;;;8.90;;
53261;SDS011;39658;51.090;-1.786;2022-08-16T12:27:09;13.13;;;8.95;;
53261;SDS011;39658;51.090;-1.786;2022-08-16T12:29:36;12.45;;;9.00;;
53261;SDS011;39658;51.090;-1.786;2022-08-16T12:32:04;12.50;;;8.25;;
53261;SDS011;39658;51.090;-1.786;2022-08-16T12:34:31;14.02;;;8.98;;
53261;SDS011;39658;51.090;-1.786;2022-08-16T12:36:58;15.40;;;9.82;;
53261;SDS011;39658;51.090;-1.786;2022-08-16T12:39:27;13.73;;;8.93;;
53261;SDS011;39658;51.090;-1.786;2022-08-16T12:41:54;11.82;;;8.30;;
53261;SDS011;39658;51.090;-1.786;2022-08-16T12:44:21;11.73;;;7.63;;
53261;SDS011;39658;51.090;-1.786;2022-08-16T12:46:49;12.75;;;8.98;;
53261;SDS011;39658;51.090;-1.786;2022-08-16T12:49:37;14.63;;;9.90;;
53261;SDS011;39658;51.090;-1.786;2022-08-16T12:52:03;14.77;;;9.70;;
53261;SDS011;39658;51.090;-1.786;2022-08-16T12:54:29;13.98;;;10.25;;
53261;SDS011;39658;51.090;-1.786;2022-08-16T12:56:57;14.30;;;12.10;;
53261;SDS011;39658;51.090;-1.786;2022-08-16T12:59:25;17.05;;;13.10;;
53261;SDS011;39658;51.090;-1.786;2022-08-16T13:01:52;17.08;;;12.80;;
53261;SDS011;39658;51.090;-1.786;2022-08-16T13:04:19;15.63;;;12.23;;
53261;SDS011;39658;51.090;-1.786;2022-08-16T13:06:48;16.35;;;13.43;;
53261;SDS011;39658;51.090;-1.786;2022-08-16T13:09:15;16.20;;;14.50;;
53261;SDS011;39658;51.090;-1.786;2022-08-16T13:11:51;15.38;;;11.68;;
53261;SDS011;39658;51.090;-1.786;2022-08-16T13:14:24;17.38;;;12.25;;
53261;SDS011;39658;51.090;-1.786;2022-08-16T13:16:52;14.25;;;11.63;;
53261;SDS011;39658;51.090;-1.786;2022-08-16T13:19:19;14.48;;;10.52;;
53261;SDS011;39658;51.090;-1.786;2022-08-16T13:21:47;13.38;;;9.63;;
53261;SDS011;39658;51.090;-1.786;2022-08-16T13:24:14;12.38;;;9.05;;
53261;SDS011;39658;51.090;-1.786;2022-08-16T13:26:41;11.98;;;8.80;;
53261;SDS011;39658;51.090;-1.786;2022-08-16T13:29:08;19.38;;;10.20;;
53261;SDS011;39658;51.090;-1.786;2022-08-16T13:31:35;14.25;;;10.30;;
53261;SDS011;39658;51.090;-1.786;2022-08-16T13:34:02;13.10;;;10.57;;
53261;SDS011;39658;51.090;-1.786;2022-08-16T13:36:29;14.25;;;11.02;;
53261;SDS011;39658;51.090;-1.786;2022-08-16T13:38:57;13.13;;;9.45;;
53261;SDS011;39658;51.090;-1.786;2022-08-16T13:41:25;13.50;;;10.50;;
53261;SDS011;39658;51.090;-1.786;2022-08-16T13:43:52;12.25;;;9.23;;
53261;SDS011;39658;51.090;-1.786;2022-08-16T13:46:19;12.73;;;9.55;;
53261;SDS011;39658;51.090;-1.786;2022-08-16T13:48:46;13.00;;;9.52;;
53261;SDS011;39658;51.090;-1.786;2022-08-16T13:51:13;12.38;;;10.27;;
53261;SDS011;39658;51.090;-1.786;2022-08-16T13:53:41;11.70;;;8.63;;
53261;SDS011;39658;51.090;-1.786;2022-08-16T13:56:10;11.25;;;10.05;;
53261;SDS011;39658;51.090;-1.786;2022-08-16T13:58:37;12.65;;;10.85;;
53261;SDS011;39658;51.090;-1.786;2022-08-16T14:01:04;13.85;;;10.85;;
53261;SDS011;39658;51.090;-1.786;2022-08-16T14:03:31;16.35;;;12.07;;
53261;SDS011;39658;51.090;-1.786;2022-08-16T14:05:58;15.02;;;13.38;;
53261;SDS011;39658;51.090;-1.786;2022-08-16T14:08:24;17.13;;;14.20;;
53261;SDS011;39658;51.090;-1.786;2022-08-16T14:10:51;18.65;;;15.93;;
53261;SDS011;39658;51.090;-1.786;2022-08-16T14:13:20;17.05;;;15.30;;
53261;SDS011;39658;51.090;-1.786;2022-08-16T14:15:47;19.70;;;17.65;;